sensor_id;sensor_type;location;lat;lon;timestamp;temperature;humidity
37642;DHT22;23486;51.956;5.888;2023-12-22T00:02:16;5.80;99.90
37642;DHT22;23486;51.956;5.888;2023-12-22T00:04:42;5.80;99.90
37642;DHT22;23486;51.956;5.888;2023-12-22T00:07:07;5.80;99.90
37642;DHT22;23486;51.956;5.888;2023-12-22T00:09:33;5.90;99.90
37642;DHT22;23486;51.956;5.888;2023-12-22T00:11:59;5.90;99.90
37642;DHT22;23486;51.956;5.888;2023-12-22T00:14:24;5.90;99.90
37642;DHT22;23486;51.956;5.888;2023-12-22T00:16:50;6.00;99.90
37642;DHT22;23486;51.956;5.888;2023-12-22T00:19:15;6.00;99.90
37642;DHT22;23486;51.956;5.888;2023-12-22T00:21:41;6.00;99.90
37642;DHT22;23486;51.956;5.888;2023-12-22T00:24:06;6.00;99.90
37642;DHT22;23486;51.956;5.888;2023-12-22T00:26:32;6.00;99.90
37642;DHT22;23486;51.956;5.888;2023-12-22T00:28:58;6.00;99.90
37642;DHT22;23486;51.956;5.888;2023-12-22T00:31:23;6.00;99.90
37642;DHT22;23486;51.956;5.888;2023-12-22T00:33:49;5.90;99.90
37642;DHT22;23486;51.956;5.888;2023-12-22T00:36:15;5.80;99.90
37642;DHT22;23486;51.956;5.888;2023-12-22T00:38:40;5.80;99.90
37642;DHT22;23486;51.956;5.888;2023-12-22T00:41:06;5.80;99.90
37642;DHT22;23486;51.956;5.888;2023-12-22T00:43:31;5.70;99.90
37642;DHT22;23486;51.956;5.888;2023-12-22T00:45:57;5.70;99.90
37642;DHT22;23486;51.956;5.888;2023-12-22T00:48:23;5.60;99.90
37642;DHT22;23486;51.956;5.888;2023-12-22T00:50:48;5.60;99.90
37642;DHT22;23486;51.956;5.888;2023-12-22T00:53:14;5.40;99.90
37642;DHT22;23486;51.956;5.888;2023-12-22T00:55:40;5.50;99.90
37642;DHT22;23486;51.956;5.888;2023-12-22T00:58:05;5.40;99.90
37642;DHT22;23486;51.956;5.888;2023-12-22T01:00:31;5.40;99.90
37642;DHT22;23486;51.956;5.888;2023-12-22T01:02:56;5.40;99.90
37642;DHT22;23486;51.956;5.888;2023-12-22T01:05:22;5.40;99.90
37642;DHT22;23486;51.956;5.888;2023-12-22T01:07:48;5.40;99.90
37642;DHT22;23486;51.956;5.888;2023-12-22T01:10:13;5.30;99.90
37642;DHT22;23486;51.956;5.888;2023-12-22T01:12:39;5.30;99.90
37642;DHT22;23486;51.956;5.888;2023-12-22T01:15:05;5.30;99.90
37642;DHT22;23486;51.956;5.888;2023-12-22T01:17:30;5.30;99.90
37642;DHT22;23486;51.956;5.888;2023-12-22T01:19:56;5.20;99.90
37642;DHT22;23486;51.956;5.888;2023-12-22T01:22:22;5.10;99.90
37642;DHT22;23486;51.956;5.888;2023-12-22T01:24:48;5.10;99.90
37642;DHT22;23486;51.956;5.888;2023-12-22T01:27:14;5.10;99.90
37642;DHT22;23486;51.956;5.888;2023-12-22T01:29:39;5.10;99.90
37642;DHT22;23486;51.956;5.888;2023-12-22T01:32:05;5.10;99.90
37642;DHT22;23486;51.956;5.888;2023-12-22T01:34:31;5.10;99.90
37642;DHT22;23486;51.956;5.888;2023-12-22T01:36:57;5.20;99.90
37642;DHT22;23486;51.956;5.888;2023-12-22T01:39:22;5.20;99.90
37642;DHT22;23486;51.956;5.888;2023-12-22T01:41:48;5.20;99.90
37642;DHT22;23486;51.956;5.888;2023-12-22T01:44:13;5.30;99.90
37642;DHT22;23486;51.956;5.888;2023-12-22T01:46:39;5.30;99.90
37642;DHT22;23486;51.956;5.888;2023-12-22T01:49:05;5.30;99.90
37642;DHT22;23486;51.956;5.888;2023-12-22T01:51:33;5.30;99.90
37642;DHT22;23486;51.956;5.888;2023-12-22T01:54:03;5.30;99.90
37642;DHT22;23486;51.956;5.888;2023-12-22T01:56:30;5.30;99.90
37642;DHT22;23486;51.956;5.888;2023-12-22T01:58:59;5.30;99.90
37642;DHT22;23486;51.956;5.888;2023-12-22T02:01:26;5.30;99.90
37642;DHT22;23486;51.956;5.888;2023-12-22T02:03:54;5.30;99.90
37642;DHT22;23486;51.956;5.888;2023-12-22T02:06:20;5.30;99.90
37642;DHT22;23486;51.956;5.888;2023-12-22T02:08:48;5.30;99.90
37642;DHT22;23486;51.956;5.888;2023-12-22T02:11:15;5.30;99.90
37642;DHT22;23486;51.956;5.888;2023-12-22T02:13:41;5.40;99.90
37642;DHT22;23486;51.956;5.888;2023-12-22T02:16:15;5.40;99.90
37642;DHT22;23486;51.956;5.888;2023-12-22T02:18:46;5.40;99.90
37642;DHT22;23486;51.956;5.888;2023-12-22T02:21:12;5.40;99.90
37642;DHT22;23486;51.956;5.888;2023-12-22T02:23:38;5.40;99.90
37642;DHT22;23486;51.956;5.888;2023-12-22T02:26:12;5.40;99.90
37642;DHT22;23486;51.956;5.888;2023-12-22T02:28:40;5.50;99.90
37642;DHT22;23486;51.956;5.888;2023-12-22T02:31:09;5.50;99.90
37642;DHT22;23486;51.956;5.888;2023-12-22T02:33:39;5.50;99.90
37642;DHT22;23486;51.956;5.888;2023-12-22T02:36:07;5.50;99.90
37642;DHT22;23486;51.956;5.888;2023-12-22T02:38:34;5.50;99.90
37642;DHT22;23486;51.956;5.888;2023-12-22T02:41:00;5.50;99.90
37642;DHT22;23486;51.956;5.888;2023-12-22T02:43:27;5.50;99.90
37642;DHT22;23486;51.956;5.888;2023-12-22T02:45:52;5.60;99.90
37642;DHT22;23486;51.956;5.888;2023-12-22T02:48:18;5.60;99.90
37642;DHT22;23486;51.956;5.888;2023-12-22T02:50:43;5.60;99.90
37642;DHT22;23486;51.956;5.888;2023-12-22T02:53:09;5.60;99.90
37642;DHT22;23486;51.956;5.888;2023-12-22T02:55:35;5.60;99.90
37642;DHT22;23486;51.956;5.888;2023-12-22T02:58:00;5.60;99.90
37642;DHT22;23486;51.956;5.888;2023-12-22T03:00:26;5.60;99.90
37642;DHT22;23486;51.956;5.888;2023-12-22T03:02:51;5.60;99.90
37642;DHT22;23486;51.956;5.888;2023-12-22T03:05:17;5.60;99.90
37642;DHT22;23486;51.956;5.888;2023-12-22T03:07:42;5.60;99.90
37642;DHT22;23486;51.956;5.888;2023-12-22T03:10:08;5.50;99.90
37642;DHT22;23486;51.956;5.888;2023-12-22T03:12:34;5.50;99.90
37642;DHT22;23486;51.956;5.888;2023-12-22T03:14:59;5.50;99.90
37642;DHT22;23486;51.956;5.888;2023-12-22T03:17:25;5.50;99.90
37642;DHT22;23486;51.956;5.888;2023-12-22T03:19:50;5.50;99.90
37642;DHT22;23486;51.956;5.888;2023-12-22T03:22:16;5.60;99.90
37642;DHT22;23486;51.956;5.888;2023-12-22T03:24:41;5.60;99.90
37642;DHT22;23486;51.956;5.888;2023-12-22T03:27:07;5.70;99.90
37642;DHT22;23486;51.956;5.888;2023-12-22T03:29:32;5.70;99.90
37642;DHT22;23486;51.956;5.888;2023-12-22T03:31:58;5.80;99.90
37642;DHT22;23486;51.956;5.888;2023-12-22T03:34:23;5.90;99.90
37642;DHT22;23486;51.956;5.888;2023-12-22T03:36:49;5.90;99.90
37642;DHT22;23486;51.956;5.888;2023-12-22T03:39:15;5.80;99.90
37642;DHT22;23486;51.956;5.888;2023-12-22T03:41:41;5.50;99.90
37642;DHT22;23486;51.956;5.888;2023-12-22T03:44:06;5.10;99.90
37642;DHT22;23486;51.956;5.888;2023-12-22T03:46:32;4.90;99.90
37642;DHT22;23486;51.956;5.888;2023-12-22T03:48:58;4.90;99.90
37642;DHT22;23486;51.956;5.888;2023-12-22T03:51:23;4.90;99.90
37642;DHT22;23486;51.956;5.888;2023-12-22T03:53:49;4.80;99.90
37642;DHT22;23486;51.956;5.888;2023-12-22T03:56:15;4.80;99.90
37642;DHT22;23486;51.956;5.888;2023-12-22T03:58:40;4.80;99.90
37642;DHT22;23486;51.956;5.888;2023-12-22T04:01:06;4.80;99.90
37642;DHT22;23486;51.956;5.888;2023-12-22T04:03:34;4.80;99.90
37642;DHT22;23486;51.956;5.888;2023-12-22T04:06:03;4.70;99.90
37642;DHT22;23486;51.956;5.888;2023-12-22T04:08:29;4.70;99.90
37642;DHT22;23486;51.956;5.888;2023-12-22T04:10:54;4.70;99.90
37642;DHT22;23486;51.956;5.888;2023-12-22T04:13:20;4.70;99.90
37642;DHT22;23486;51.956;5.888;2023-12-22T04:15:45;4.70;99.90
37642;DHT22;23486;51.956;5.888;2023-12-22T04:18:11;4.70;99.90
37642;DHT22;23486;51.956;5.888;2023-12-22T04:20:36;4.70;99.90
37642;DHT22;23486;51.956;5.888;2023-12-22T04:23:02;4.80;99.90
37642;DHT22;23486;51.956;5.888;2023-12-22T04:25:28;4.80;99.90
37642;DHT22;23486;51.956;5.888;2023-12-22T04:27:53;4.80;99.90
37642;DHT22;23486;51.956;5.888;2023-12-22T04:30:19;4.90;99.90
37642;DHT22;23486;51.956;5.888;2023-12-22T04:32:45;4.90;99.90
37642;DHT22;23486;51.956;5.888;2023-12-22T04:35:10;4.90;99.90
37642;DHT22;23486;51.956;5.888;2023-12-22T04:37:36;5.00;99.90
37642;DHT22;23486;51.956;5.888;2023-12-22T04:40:02;5.00;99.90
37642;DHT22;23486;51.956;5.888;2023-12-22T04:42:28;5.10;99.90
37642;DHT22;23486;51.956;5.888;2023-12-22T04:44:54;5.10;99.90
37642;DHT22;23486;51.956;5.888;2023-12-22T04:47:19;5.10;99.90
37642;DHT22;23486;51.956;5.888;2023-12-22T04:49:46;5.20;99.90
37642;DHT22;23486;51.956;5.888;2023-12-22T04:52:12;5.20;99.90
37642;DHT22;23486;51.956;5.888;2023-12-22T04:54:38;5.20;99.90
37642;DHT22;23486;51.956;5.888;2023-12-22T04:57:04;5.20;99.90
37642;DHT22;23486;51.956;5.888;2023-12-22T04:59:29;5.30;99.90
37642;DHT22;23486;51.956;5.888;2023-12-22T05:01:55;5.30;99.90
37642;DHT22;23486;51.956;5.888;2023-12-22T05:04:21;5.30;99.90
37642;DHT22;23486;51.956;5.888;2023-12-22T05:06:47;5.40;99.90
37642;DHT22;23486;51.956;5.888;2023-12-22T05:09:13;5.40;99.90
37642;DHT22;23486;51.956;5.888;2023-12-22T05:11:39;5.40;99.90
37642;DHT22;23486;51.956;5.888;2023-12-22T05:14:04;5.40;99.90
37642;DHT22;23486;51.956;5.888;2023-12-22T05:16:30;5.50;99.90
37642;DHT22;23486;51.956;5.888;2023-12-22T05:18:57;5.40;99.90
37642;DHT22;23486;51.956;5.888;2023-12-22T05:21:23;5.40;99.90
37642;DHT22;23486;51.956;5.888;2023-12-22T05:23:49;5.50;99.90
37642;DHT22;23486;51.956;5.888;2023-12-22T05:26:21;5.40;99.90
37642;DHT22;23486;51.956;5.888;2023-12-22T05:28:48;5.40;99.90
37642;DHT22;23486;51.956;5.888;2023-12-22T05:31:16;5.40;99.90
37642;DHT22;23486;51.956;5.888;2023-12-22T05:33:42;5.40;99.90
37642;DHT22;23486;51.956;5.888;2023-12-22T05:36:08;5.40;99.90
37642;DHT22;23486;51.956;5.888;2023-12-22T05:38:37;5.40;99.90
37642;DHT22;23486;51.956;5.888;2023-12-22T05:41:04;5.40;99.90
37642;DHT22;23486;51.956;5.888;2023-12-22T05:43:30;5.40;99.90
37642;DHT22;23486;51.956;5.888;2023-12-22T05:45:56;5.40;99.90
37642;DHT22;23486;51.956;5.888;2023-12-22T05:48:22;5.40;99.90
37642;DHT22;23486;51.956;5.888;2023-12-22T05:50:48;5.40;99.90
37642;DHT22;23486;51.956;5.888;2023-12-22T05:53:13;5.50;99.90
37642;DHT22;23486;51.956;5.888;2023-12-22T05:55:39;5.50;99.90
37642;DHT22;23486;51.956;5.888;2023-12-22T05:58:04;5.50;99.90
37642;DHT22;23486;51.956;5.888;2023-12-22T06:00:30;5.50;99.90
37642;DHT22;23486;51.956;5.888;2023-12-22T06:02:56;5.60;99.90
37642;DHT22;23486;51.956;5.888;2023-12-22T06:05:22;5.50;99.90
37642;DHT22;23486;51.956;5.888;2023-12-22T06:07:47;5.60;99.90
37642;DHT22;23486;51.956;5.888;2023-12-22T06:10:13;5.60;99.90
37642;DHT22;23486;51.956;5.888;2023-12-22T06:12:39;5.60;99.90
37642;DHT22;23486;51.956;5.888;2023-12-22T06:15:05;5.70;99.90
37642;DHT22;23486;51.956;5.888;2023-12-22T06:17:30;5.70;99.90
37642;DHT22;23486;51.956;5.888;2023-12-22T06:19:56;5.80;99.90
37642;DHT22;23486;51.956;5.888;2023-12-22T06:22:22;5.90;99.90
37642;DHT22;23486;51.956;5.888;2023-12-22T06:24:48;5.90;99.90
37642;DHT22;23486;51.956;5.888;2023-12-22T06:27:14;6.00;99.90
37642;DHT22;23486;51.956;5.888;2023-12-22T06:29:39;6.10;99.90
37642;DHT22;23486;51.956;5.888;2023-12-22T06:32:05;6.20;99.90
37642;DHT22;23486;51.956;5.888;2023-12-22T06:34:31;6.20;99.90
37642;DHT22;23486;51.956;5.888;2023-12-22T06:36:57;6.30;99.90
37642;DHT22;23486;51.956;5.888;2023-12-22T06:39:23;6.30;99.90
37642;DHT22;23486;51.956;5.888;2023-12-22T06:41:48;6.40;99.90
37642;DHT22;23486;51.956;5.888;2023-12-22T06:44:14;6.40;99.90
37642;DHT22;23486;51.956;5.888;2023-12-22T06:46:39;6.50;99.90
37642;DHT22;23486;51.956;5.888;2023-12-22T06:49:05;6.60;99.90
37642;DHT22;23486;51.956;5.888;2023-12-22T06:51:31;6.60;99.90
37642;DHT22;23486;51.956;5.888;2023-12-22T06:53:57;6.70;99.90
37642;DHT22;23486;51.956;5.888;2023-12-22T06:56:26;6.70;99.90
37642;DHT22;23486;51.956;5.888;2023-12-22T06:58:54;6.70;99.90
37642;DHT22;23486;51.956;5.888;2023-12-22T07:01:25;6.80;99.90
37642;DHT22;23486;51.956;5.888;2023-12-22T07:03:51;6.80;99.90
37642;DHT22;23486;51.956;5.888;2023-12-22T07:06:17;6.80;99.90
37642;DHT22;23486;51.956;5.888;2023-12-22T07:08:44;6.80;99.90
37642;DHT22;23486;51.956;5.888;2023-12-22T07:11:10;6.80;99.90
37642;DHT22;23486;51.956;5.888;2023-12-22T07:13:36;6.90;99.90
37642;DHT22;23486;51.956;5.888;2023-12-22T07:16:02;6.90;99.90
37642;DHT22;23486;51.956;5.888;2023-12-22T07:18:28;7.00;99.90
37642;DHT22;23486;51.956;5.888;2023-12-22T07:20:57;7.00;99.90
37642;DHT22;23486;51.956;5.888;2023-12-22T07:23:23;7.00;99.90
37642;DHT22;23486;51.956;5.888;2023-12-22T07:25:49;7.00;99.90
37642;DHT22;23486;51.956;5.888;2023-12-22T07:28:15;7.10;99.90
37642;DHT22;23486;51.956;5.888;2023-12-22T07:30:41;7.10;99.90
37642;DHT22;23486;51.956;5.888;2023-12-22T07:33:07;7.10;99.90
37642;DHT22;23486;51.956;5.888;2023-12-22T07:35:33;7.20;99.90
37642;DHT22;23486;51.956;5.888;2023-12-22T07:37:58;7.20;99.90
37642;DHT22;23486;51.956;5.888;2023-12-22T07:40:24;7.20;99.90
37642;DHT22;23486;51.956;5.888;2023-12-22T07:42:50;7.20;99.90
37642;DHT22;23486;51.956;5.888;2023-12-22T07:45:16;7.20;99.90
37642;DHT22;23486;51.956;5.888;2023-12-22T07:47:41;7.20;99.90
37642;DHT22;23486;51.956;5.888;2023-12-22T07:50:07;7.30;99.90
37642;DHT22;23486;51.956;5.888;2023-12-22T07:52:34;7.30;99.90
37642;DHT22;23486;51.956;5.888;2023-12-22T07:55:04;7.30;99.90
37642;DHT22;23486;51.956;5.888;2023-12-22T07:57:30;7.30;99.90
37642;DHT22;23486;51.956;5.888;2023-12-22T07:59:55;7.30;99.90
37642;DHT22;23486;51.956;5.888;2023-12-22T08:02:21;7.40;99.90
37642;DHT22;23486;51.956;5.888;2023-12-22T08:04:49;7.40;99.90
37642;DHT22;23486;51.956;5.888;2023-12-22T08:07:15;7.40;99.90
37642;DHT22;23486;51.956;5.888;2023-12-22T08:09:41;7.40;99.90
37642;DHT22;23486;51.956;5.888;2023-12-22T08:12:07;7.40;99.90
37642;DHT22;23486;51.956;5.888;2023-12-22T08:14:33;7.40;99.90
37642;DHT22;23486;51.956;5.888;2023-12-22T08:16:58;7.50;99.90
37642;DHT22;23486;51.956;5.888;2023-12-22T08:19:24;7.50;99.90
37642;DHT22;23486;51.956;5.888;2023-12-22T08:21:52;7.40;99.90
37642;DHT22;23486;51.956;5.888;2023-12-22T08:24:18;7.30;99.90
37642;DHT22;23486;51.956;5.888;2023-12-22T08:26:43;7.20;99.90
37642;DHT22;23486;51.956;5.888;2023-12-22T08:29:09;7.10;99.90
37642;DHT22;23486;51.956;5.888;2023-12-22T08:31:35;7.00;99.90
37642;DHT22;23486;51.956;5.888;2023-12-22T08:34:00;7.00;99.90
37642;DHT22;23486;51.956;5.888;2023-12-22T08:36:26;6.90;99.90
37642;DHT22;23486;51.956;5.888;2023-12-22T08:38:51;6.90;99.90
37642;DHT22;23486;51.956;5.888;2023-12-22T08:41:17;6.90;99.90
37642;DHT22;23486;51.956;5.888;2023-12-22T08:43:42;7.00;99.90
37642;DHT22;23486;51.956;5.888;2023-12-22T08:46:08;7.00;99.90
37642;DHT22;23486;51.956;5.888;2023-12-22T08:48:35;7.10;99.90
37642;DHT22;23486;51.956;5.888;2023-12-22T08:51:00;7.10;99.90
37642;DHT22;23486;51.956;5.888;2023-12-22T08:53:26;7.10;99.90
37642;DHT22;23486;51.956;5.888;2023-12-22T08:55:55;7.20;99.90
37642;DHT22;23486;51.956;5.888;2023-12-22T08:58:21;7.20;99.90
37642;DHT22;23486;51.956;5.888;2023-12-22T09:00:47;7.30;99.90
37642;DHT22;23486;51.956;5.888;2023-12-22T09:03:13;7.30;99.90
37642;DHT22;23486;51.956;5.888;2023-12-22T09:05:38;7.40;99.90
37642;DHT22;23486;51.956;5.888;2023-12-22T09:08:05;7.40;99.90
37642;DHT22;23486;51.956;5.888;2023-12-22T09:10:31;7.40;99.90
37642;DHT22;23486;51.956;5.888;2023-12-22T09:12:57;7.40;99.90
37642;DHT22;23486;51.956;5.888;2023-12-22T09:15:23;7.40;99.90
37642;DHT22;23486;51.956;5.888;2023-12-22T09:17:49;7.50;99.90
37642;DHT22;23486;51.956;5.888;2023-12-22T09:20:17;7.50;99.90
37642;DHT22;23486;51.956;5.888;2023-12-22T09:22:42;7.50;99.90
37642;DHT22;23486;51.956;5.888;2023-12-22T09:25:08;7.50;99.90
37642;DHT22;23486;51.956;5.888;2023-12-22T09:27:34;7.50;99.90
37642;DHT22;23486;51.956;5.888;2023-12-22T09:30:00;7.60;99.90
37642;DHT22;23486;51.956;5.888;2023-12-22T09:32:25;7.60;99.90
37642;DHT22;23486;51.956;5.888;2023-12-22T09:34:52;7.60;99.90
37642;DHT22;23486;51.956;5.888;2023-12-22T09:37:18;7.70;99.90
37642;DHT22;23486;51.956;5.888;2023-12-22T09:39:43;7.80;99.90
37642;DHT22;23486;51.956;5.888;2023-12-22T09:42:09;7.80;99.90
37642;DHT22;23486;51.956;5.888;2023-12-22T09:44:36;7.90;99.90
37642;DHT22;23486;51.956;5.888;2023-12-22T09:47:04;7.90;99.90
37642;DHT22;23486;51.956;5.888;2023-12-22T09:49:33;7.90;99.90
37642;DHT22;23486;51.956;5.888;2023-12-22T09:51:59;7.90;99.90
37642;DHT22;23486;51.956;5.888;2023-12-22T09:54:26;7.80;99.90
37642;DHT22;23486;51.956;5.888;2023-12-22T09:56:53;7.70;99.90
37642;DHT22;23486;51.956;5.888;2023-12-22T09:59:19;7.60;99.90
37642;DHT22;23486;51.956;5.888;2023-12-22T10:01:47;7.50;99.90
37642;DHT22;23486;51.956;5.888;2023-12-22T10:04:14;7.40;99.90
37642;DHT22;23486;51.956;5.888;2023-12-22T10:06:40;7.30;99.90
37642;DHT22;23486;51.956;5.888;2023-12-22T10:09:07;7.30;99.90
37642;DHT22;23486;51.956;5.888;2023-12-22T10:11:35;7.30;99.90
37642;DHT22;23486;51.956;5.888;2023-12-22T10:14:02;7.20;99.90
37642;DHT22;23486;51.956;5.888;2023-12-22T10:16:28;7.20;99.90
37642;DHT22;23486;51.956;5.888;2023-12-22T10:18:54;7.20;99.90
37642;DHT22;23486;51.956;5.888;2023-12-22T10:21:20;7.30;99.90
37642;DHT22;23486;51.956;5.888;2023-12-22T10:23:45;7.30;99.90
37642;DHT22;23486;51.956;5.888;2023-12-22T10:26:14;7.30;99.90
37642;DHT22;23486;51.956;5.888;2023-12-22T10:28:41;7.40;99.90
37642;DHT22;23486;51.956;5.888;2023-12-22T10:31:09;7.40;99.90
37642;DHT22;23486;51.956;5.888;2023-12-22T10:33:34;7.50;99.90
37642;DHT22;23486;51.956;5.888;2023-12-22T10:36:00;7.60;99.90
37642;DHT22;23486;51.956;5.888;2023-12-22T10:38:32;7.70;99.90
37642;DHT22;23486;51.956;5.888;2023-12-22T10:41:00;7.80;99.90
37642;DHT22;23486;51.956;5.888;2023-12-22T10:43:26;7.90;99.90
37642;DHT22;23486;51.956;5.888;2023-12-22T10:45:52;8.00;99.90
37642;DHT22;23486;51.956;5.888;2023-12-22T10:48:18;8.10;99.90
37642;DHT22;23486;51.956;5.888;2023-12-22T10:50:44;8.20;99.90
37642;DHT22;23486;51.956;5.888;2023-12-22T10:53:11;8.30;99.90
37642;DHT22;23486;51.956;5.888;2023-12-22T10:55:36;8.30;99.90
37642;DHT22;23486;51.956;5.888;2023-12-22T10:58:03;8.30;99.90
37642;DHT22;23486;51.956;5.888;2023-12-22T11:00:29;8.40;99.90
37642;DHT22;23486;51.956;5.888;2023-12-22T11:03:06;8.40;99.90
37642;DHT22;23486;51.956;5.888;2023-12-22T11:05:33;8.40;99.90
37642;DHT22;23486;51.956;5.888;2023-12-22T11:08:03;8.40;99.90
37642;DHT22;23486;51.956;5.888;2023-12-22T11:10:31;8.50;99.90
37642;DHT22;23486;51.956;5.888;2023-12-22T11:12:57;8.50;99.90
37642;DHT22;23486;51.956;5.888;2023-12-22T11:15:24;8.50;99.90
37642;DHT22;23486;51.956;5.888;2023-12-22T11:17:51;8.50;99.90
37642;DHT22;23486;51.956;5.888;2023-12-22T11:20:18;8.60;99.90
37642;DHT22;23486;51.956;5.888;2023-12-22T11:22:44;8.60;99.90
37642;DHT22;23486;51.956;5.888;2023-12-22T11:25:10;8.60;99.90
37642;DHT22;23486;51.956;5.888;2023-12-22T11:27:37;8.60;99.90
37642;DHT22;23486;51.956;5.888;2023-12-22T11:30:04;8.70;99.90
37642;DHT22;23486;51.956;5.888;2023-12-22T11:32:34;8.70;99.90
37642;DHT22;23486;51.956;5.888;2023-12-22T11:35:00;8.80;99.90
37642;DHT22;23486;51.956;5.888;2023-12-22T11:37:25;8.80;99.90
37642;DHT22;23486;51.956;5.888;2023-12-22T11:39:51;8.80;99.90
37642;DHT22;23486;51.956;5.888;2023-12-22T11:42:30;8.80;99.90
37642;DHT22;23486;51.956;5.888;2023-12-22T11:45:02;8.90;99.90
37642;DHT22;23486;51.956;5.888;2023-12-22T11:47:28;8.90;99.90
37642;DHT22;23486;51.956;5.888;2023-12-22T11:49:53;8.90;99.90
37642;DHT22;23486;51.956;5.888;2023-12-22T11:52:26;8.90;99.90
37642;DHT22;23486;51.956;5.888;2023-12-22T11:54:54;8.90;99.90
37642;DHT22;23486;51.956;5.888;2023-12-22T11:57:35;8.90;99.90
37642;DHT22;23486;51.956;5.888;2023-12-22T12:02:54;8.70;99.90
37642;DHT22;23486;51.956;5.888;2023-12-22T12:05:20;8.70;99.90
37642;DHT22;23486;51.956;5.888;2023-12-22T12:07:47;8.70;99.90
37642;DHT22;23486;51.956;5.888;2023-12-22T12:15:36;8.80;99.90
37642;DHT22;23486;51.956;5.888;2023-12-22T12:18:02;8.90;99.90
37642;DHT22;23486;51.956;5.888;2023-12-22T12:20:28;8.90;99.90
37642;DHT22;23486;51.956;5.888;2023-12-22T12:22:54;8.90;99.90
37642;DHT22;23486;51.956;5.888;2023-12-22T12:25:22;8.90;99.90
37642;DHT22;23486;51.956;5.888;2023-12-22T12:28:08;8.80;99.90
37642;DHT22;23486;51.956;5.888;2023-12-22T12:30:36;8.80;99.90
37642;DHT22;23486;51.956;5.888;2023-12-22T12:33:10;8.80;99.90
37642;DHT22;23486;51.956;5.888;2023-12-22T12:35:39;8.80;99.90
37642;DHT22;23486;51.956;5.888;2023-12-22T12:38:05;8.80;99.90
37642;DHT22;23486;51.956;5.888;2023-12-22T12:40:32;8.80;99.90
37642;DHT22;23486;51.956;5.888;2023-12-22T12:43:00;8.80;99.90
37642;DHT22;23486;51.956;5.888;2023-12-22T12:45:26;8.80;99.90
37642;DHT22;23486;51.956;5.888;2023-12-22T12:47:59;8.80;99.90
37642;DHT22;23486;51.956;5.888;2023-12-22T12:50:25;8.90;99.90
37642;DHT22;23486;51.956;5.888;2023-12-22T12:52:54;8.90;99.90
37642;DHT22;23486;51.956;5.888;2023-12-22T12:55:24;8.90;99.90
37642;DHT22;23486;51.956;5.888;2023-12-22T12:57:53;9.00;99.90
37642;DHT22;23486;51.956;5.888;2023-12-22T13:00:26;9.00;99.90
37642;DHT22;23486;51.956;5.888;2023-12-22T13:02:54;9.00;99.90
37642;DHT22;23486;51.956;5.888;2023-12-22T13:05:24;9.10;99.90
37642;DHT22;23486;51.956;5.888;2023-12-22T13:07:50;9.10;99.90
37642;DHT22;23486;51.956;5.888;2023-12-22T13:10:25;9.10;99.90
37642;DHT22;23486;51.956;5.888;2023-12-22T13:12:54;9.10;99.90
37642;DHT22;23486;51.956;5.888;2023-12-22T13:15:22;9.20;99.90
37642;DHT22;23486;51.956;5.888;2023-12-22T13:17:48;9.20;99.90
37642;DHT22;23486;51.956;5.888;2023-12-22T13:20:14;9.20;99.90
37642;DHT22;23486;51.956;5.888;2023-12-22T13:22:39;9.20;99.90
37642;DHT22;23486;51.956;5.888;2023-12-22T13:25:05;9.20;99.90
37642;DHT22;23486;51.956;5.888;2023-12-22T13:27:31;9.10;99.90
37642;DHT22;23486;51.956;5.888;2023-12-22T13:29:57;9.10;99.90
37642;DHT22;23486;51.956;5.888;2023-12-22T13:32:23;9.10;99.90
37642;DHT22;23486;51.956;5.888;2023-12-22T13:34:54;9.10;99.90
37642;DHT22;23486;51.956;5.888;2023-12-22T13:37:21;9.20;99.90
37642;DHT22;23486;51.956;5.888;2023-12-22T13:39:47;9.20;99.90
37642;DHT22;23486;51.956;5.888;2023-12-22T13:42:19;9.20;99.90
37642;DHT22;23486;51.956;5.888;2023-12-22T13:44:48;9.20;99.90
37642;DHT22;23486;51.956;5.888;2023-12-22T13:47:16;9.20;99.90
37642;DHT22;23486;51.956;5.888;2023-12-22T13:49:42;9.20;99.90
37642;DHT22;23486;51.956;5.888;2023-12-22T13:52:27;9.20;99.90
37642;DHT22;23486;51.956;5.888;2023-12-22T13:54:53;9.20;99.90
37642;DHT22;23486;51.956;5.888;2023-12-22T13:57:22;9.20;99.90
37642;DHT22;23486;51.956;5.888;2023-12-22T13:59:48;9.20;99.90
37642;DHT22;23486;51.956;5.888;2023-12-22T14:02:13;9.20;99.90
37642;DHT22;23486;51.956;5.888;2023-12-22T14:04:39;9.30;99.90
37642;DHT22;23486;51.956;5.888;2023-12-22T14:07:05;9.30;99.90
37642;DHT22;23486;51.956;5.888;2023-12-22T14:09:30;9.30;99.90
37642;DHT22;23486;51.956;5.888;2023-12-22T14:12:00;9.30;99.90
37642;DHT22;23486;51.956;5.888;2023-12-22T14:14:25;9.30;99.90
37642;DHT22;23486;51.956;5.888;2023-12-22T14:16:51;9.20;99.90
37642;DHT22;23486;51.956;5.888;2023-12-22T14:19:16;9.10;99.90
37642;DHT22;23486;51.956;5.888;2023-12-22T14:21:42;9.10;99.90
37642;DHT22;23486;51.956;5.888;2023-12-22T14:24:07;9.00;99.90
37642;DHT22;23486;51.956;5.888;2023-12-22T14:26:48;9.00;99.90
37642;DHT22;23486;51.956;5.888;2023-12-22T14:29:14;8.90;99.90
37642;DHT22;23486;51.956;5.888;2023-12-22T14:31:40;8.90;99.90
37642;DHT22;23486;51.956;5.888;2023-12-22T14:34:06;8.90;99.90
37642;DHT22;23486;51.956;5.888;2023-12-22T14:36:31;8.90;99.90
37642;DHT22;23486;51.956;5.888;2023-12-22T14:38:57;8.90;99.90
37642;DHT22;23486;51.956;5.888;2023-12-22T14:41:22;8.80;99.90
37642;DHT22;23486;51.956;5.888;2023-12-22T14:43:48;8.80;99.90
37642;DHT22;23486;51.956;5.888;2023-12-22T14:46:14;8.80;99.90
37642;DHT22;23486;51.956;5.888;2023-12-22T14:48:39;8.90;99.90
37642;DHT22;23486;51.956;5.888;2023-12-22T14:51:05;8.90;99.90
37642;DHT22;23486;51.956;5.888;2023-12-22T14:53:31;8.90;99.90
37642;DHT22;23486;51.956;5.888;2023-12-22T14:55:56;8.90;99.90
37642;DHT22;23486;51.956;5.888;2023-12-22T14:58:24;8.90;99.90
37642;DHT22;23486;51.956;5.888;2023-12-22T15:00:50;8.90;99.90
37642;DHT22;23486;51.956;5.888;2023-12-22T15:03:15;8.90;99.90
37642;DHT22;23486;51.956;5.888;2023-12-22T15:05:41;8.80;99.90
37642;DHT22;23486;51.956;5.888;2023-12-22T15:08:07;8.90;99.90
37642;DHT22;23486;51.956;5.888;2023-12-22T15:10:33;8.90;99.90
37642;DHT22;23486;51.956;5.888;2023-12-22T15:12:58;8.90;99.90
37642;DHT22;23486;51.956;5.888;2023-12-22T15:15:24;8.90;99.90
37642;DHT22;23486;51.956;5.888;2023-12-22T15:17:49;8.90;99.90
37642;DHT22;23486;51.956;5.888;2023-12-22T15:20:15;8.90;99.90
37642;DHT22;23486;51.956;5.888;2023-12-22T15:22:40;8.90;99.90
37642;DHT22;23486;51.956;5.888;2023-12-22T15:25:06;8.90;99.90
37642;DHT22;23486;51.956;5.888;2023-12-22T15:27:31;8.90;99.90
37642;DHT22;23486;51.956;5.888;2023-12-22T15:29:58;8.90;99.90
37642;DHT22;23486;51.956;5.888;2023-12-22T15:32:23;8.80;99.90
37642;DHT22;23486;51.956;5.888;2023-12-22T15:34:49;8.90;99.90
37642;DHT22;23486;51.956;5.888;2023-12-22T15:37:14;8.80;99.90
37642;DHT22;23486;51.956;5.888;2023-12-22T15:39:40;8.80;99.90
37642;DHT22;23486;51.956;5.888;2023-12-22T15:42:06;8.90;99.90
37642;DHT22;23486;51.956;5.888;2023-12-22T15:44:31;8.90;99.90
37642;DHT22;23486;51.956;5.888;2023-12-22T15:46:57;8.80;99.90
37642;DHT22;23486;51.956;5.888;2023-12-22T15:49:22;8.80;99.90